createdAt,value
2017-02-24T00:00:32.890Z,6.7
2017-02-24T00:01:35.853Z,6.7
2017-02-24T00:02:38.138Z,6.7
2017-02-24T00:03:40.605Z,6.7
2017-02-24T00:04:43.574Z,6.7
2017-02-24T00:05:46.078Z,6.7
2017-02-24T00:06:48.527Z,6.7
2017-02-24T00:07:51.483Z,6.7
2017-02-24T00:08:53.938Z,6.7
2017-02-24T00:09:56.423Z,6.7
2017-02-24T00:10:58.893Z,6.7
2017-02-24T00:12:01.872Z,6.7
2017-02-24T00:13:04.168Z,6.7
2017-02-24T00:14:06.624Z,6.7
2017-02-24T00:15:09.594Z,6.7
2017-02-24T00:16:12.053Z,6.7
2017-02-24T00:17:14.868Z,6.7
2017-02-24T00:18:17.317Z,6.7
2017-02-24T00:19:19.779Z,6.7
2017-02-24T00:20:22.730Z,6.7
2017-02-24T00:21:25.089Z,6.7
2017-02-24T00:22:28.082Z,6.7
2017-02-24T00:23:30.540Z,6.7
2017-02-24T00:24:33.018Z,6.6
2017-02-24T00:25:35.466Z,6.6
2017-02-24T00:26:37.926Z,6.6
2017-02-24T00:27:40.727Z,6.6
2017-02-24T00:28:43.012Z,6.6
2017-02-24T00:29:46.504Z,6.6
2017-02-24T00:30:48.466Z,6.6
2017-02-24T00:31:50.925Z,6.6
2017-02-24T00:32:53.882Z,6.6
2017-02-24T00:33:56.371Z,6.6
2017-02-24T00:34:58.824Z,6.6
2017-02-24T00:36:02.308Z,6.6
2017-02-24T00:37:04.100Z,6.6
2017-02-24T00:38:06.571Z,6.6
2017-02-24T00:39:09.523Z,6.6
2017-02-24T00:40:11.980Z,6.6
2017-02-24T00:42:17.170Z,6.6
2017-02-24T00:44:22.564Z,6.5
2017-02-24T00:45:25.016Z,6.5
2017-02-24T00:46:27.472Z,6.5
2017-02-24T00:47:30.458Z,6.6
2017-02-24T00:48:32.922Z,6.6
2017-02-24T00:49:35.376Z,6.6
2017-02-24T00:50:37.842Z,6.6
2017-02-24T00:51:40.628Z,6.6
2017-02-24T00:52:43.076Z,6.6
2017-02-24T00:53:46.053Z,6.6
2017-02-24T00:54:48.531Z,6.6
2017-02-24T00:56:53.909Z,6.6
2017-02-24T00:57:56.361Z,6.6
2017-02-24T00:58:59.370Z,6.6
2017-02-24T01:00:01.170Z,6.6
2017-02-24T01:01:04.146Z,6.6
2017-02-24T01:02:06.439Z,6.6
2017-02-24T01:03:09.924Z,6.5
2017-02-24T01:04:11.885Z,6.5
2017-02-24T01:05:14.672Z,6.6
2017-02-24T01:06:17.144Z,6.6
2017-02-24T01:07:19.603Z,6.6
2017-02-24T01:08:22.568Z,6.6
2017-02-24T01:09:25.016Z,6.6
2017-02-24T01:10:27.484Z,6.5
2017-02-24T01:11:30.451Z,6.6
2017-02-24T01:12:32.914Z,6.6
2017-02-24T01:13:35.365Z,6.6
2017-02-24T01:14:37.816Z,6.6
2017-02-24T01:15:40.791Z,6.6
2017-02-24T01:16:43.246Z,6.6
2017-02-24T01:17:45.722Z,6.6
2017-02-24T01:18:48.688Z,6.6
2017-02-24T01:19:51.141Z,6.6
2017-02-24T01:20:53.612Z,6.5
2017-02-24T01:21:56.064Z,6.6
2017-02-24T01:22:59.025Z,6.6
2017-02-24T01:24:02.008Z,6.6
2017-02-24T01:25:03.811Z,6.6
2017-02-24T01:26:06.764Z,6.6
2017-02-24T01:27:09.046Z,6.6
2017-02-24T01:28:11.997Z,6.6
2017-02-24T01:29:14.129Z,6.6
2017-02-24T01:30:17.101Z,6.5
2017-02-24T01:31:19.554Z,6.5
2017-02-24T01:32:22.505Z,6.5
2017-02-24T01:33:24.964Z,6.5
2017-02-24T01:34:27.416Z,6.5
2017-02-24T01:35:30.371Z,6.5
2017-02-24T01:36:33.360Z,6.5
2017-02-24T01:37:35.312Z,6.5
2017-02-24T01:39:40.674Z,6.5
2017-02-24T01:40:43.141Z,6.4
2017-02-24T01:42:48.504Z,6.4
2017-02-24T01:43:51.495Z,6.4
2017-02-24T01:44:53.448Z,6.4
2017-02-24T01:45:56.402Z,6.4
2017-02-24T01:46:58.854Z,6.4
2017-02-24T01:48:01.305Z,6.3
2017-02-24T01:49:04.787Z,6.3
2017-02-24T01:50:07.272Z,6.4
2017-02-24T01:51:09.215Z,6.3
2017-02-24T01:52:11.660Z,6.3
2017-02-24T01:53:14.615Z,6.3
2017-02-24T01:54:17.078Z,6.3
2017-02-24T01:56:22.448Z,6.3
2017-02-24T01:57:25.432Z,6.3
2017-02-24T01:58:30.752Z,6.3
2017-02-24T01:59:30.199Z,6.3
2017-02-24T02:00:32.671Z,6.3
2017-02-24T02:01:35.130Z,6.3
2017-02-24T02:02:37.595Z,6.3
2017-02-24T02:03:40.819Z,6.3
2017-02-24T02:04:43.311Z,6.3
2017-02-24T02:05:45.759Z,6.3
2017-02-24T02:06:48.219Z,6.3
2017-02-24T02:07:50.682Z,6.3
2017-02-24T02:08:53.945Z,6.3
2017-02-24T02:09:55.903Z,6.3
2017-02-24T02:10:58.899Z,6.3
2017-02-24T02:12:01.378Z,6.3
2017-02-24T02:13:03.840Z,6.3
2017-02-24T02:14:06.386Z,6.3
2017-02-24T02:15:08.849Z,6.3
2017-02-24T02:16:11.804Z,6.3
2017-02-24T02:18:16.530Z,6.3
2017-02-24T02:19:19.789Z,6.3
2017-02-24T02:20:22.238Z,6.3
2017-02-24T02:21:24.690Z,6.3
2017-02-24T02:22:27.157Z,6.3
2017-02-24T02:23:29.627Z,6.2
2017-02-24T02:24:32.660Z,6.3
2017-02-24T02:25:35.123Z,6.3
2017-02-24T02:26:37.593Z,6.2
2017-02-24T02:27:39.887Z,6.3
2017-02-24T02:28:42.838Z,6.3
2017-02-24T02:29:45.542Z,6.3
2017-02-24T02:30:47.995Z,6.3
2017-02-24T02:31:50.472Z,6.2
2017-02-24T02:32:53.962Z,6.3
2017-02-24T02:33:55.945Z,6.2
2017-02-24T02:34:58.658Z,6.2
2017-02-24T02:36:01.143Z,6.2
2017-02-24T02:37:03.609Z,6.3
2017-02-24T02:38:06.066Z,6.2
2017-02-24T02:39:09.028Z,6.2
2017-02-24T02:40:12.309Z,6.2
2017-02-24T02:41:13.754Z,6.2
2017-02-24T02:42:16.708Z,6.2
2017-02-24T02:43:19.170Z,6.2
2017-02-24T02:44:21.657Z,6.2
2017-02-24T02:45:25.396Z,6.2
2017-02-24T02:46:26.844Z,6.2
2017-02-24T02:47:29.798Z,6.2
2017-02-24T02:48:32.255Z,6.2
2017-02-24T02:49:35.234Z,6.2
2017-02-24T02:50:37.935Z,6.2
2017-02-24T02:51:40.423Z,6.2
2017-02-24T02:52:42.897Z,6.2
2017-02-24T02:53:45.358Z,6.2
2017-02-24T02:54:47.824Z,6.2
2017-02-24T02:55:50.569Z,6.2
2017-02-24T02:56:53.559Z,6.2
2017-02-24T02:57:55.538Z,6.2
2017-02-24T02:58:58.520Z,6.2
2017-02-24T03:00:00.986Z,6.2
2017-02-24T03:01:03.736Z,6.2
2017-02-24T03:02:06.732Z,6.2
2017-02-24T03:03:08.368Z,6.2
2017-02-24T03:04:11.323Z,6.2
2017-02-24T03:05:14.167Z,6.2
2017-02-24T03:06:17.405Z,6.1
2017-02-24T03:07:18.876Z,6.1
2017-02-24T03:08:21.712Z,6.1
2017-02-24T03:09:24.170Z,6.1
2017-02-24T03:10:26.631Z,6.1
2017-02-24T03:11:29.836Z,6.1
2017-02-24T03:12:32.320Z,6.1
2017-02-24T03:13:34.774Z,6.1
2017-02-24T03:14:37.236Z,6.1
2017-02-24T03:15:39.707Z,6.1
2017-02-24T03:16:42.964Z,6.1
2017-02-24T03:17:45.066Z,6.1
2017-02-24T03:18:47.534Z,6.1
2017-02-24T03:19:49.986Z,6.1
2017-02-24T03:20:52.997Z,6.1
2017-02-24T03:22:58.103Z,6.1
2017-02-24T03:24:00.587Z,6.1
2017-02-24T03:25:03.056Z,6.1
2017-02-24T03:26:06.006Z,6
2017-02-24T03:27:08.288Z,6
2017-02-24T03:28:11.378Z,6
2017-02-24T03:29:13.163Z,6
2017-02-24T03:30:16.014Z,6
2017-02-24T03:31:18.969Z,6
2017-02-24T03:32:21.416Z,6
2017-02-24T03:33:24.171Z,6
2017-02-24T03:34:26.640Z,6
2017-02-24T03:35:29.093Z,6
2017-02-24T03:36:31.547Z,6
2017-02-24T03:37:34.501Z,6
2017-02-24T03:38:37.209Z,6
2017-02-24T03:39:39.697Z,5.9
2017-02-24T03:40:42.198Z,5.9
2017-02-24T03:41:45.244Z,5.9
2017-02-24T03:42:47.503Z,5.9
2017-02-24T03:43:50.318Z,6
2017-02-24T03:44:52.313Z,6
2017-02-24T03:45:55.313Z,6
2017-02-24T03:46:57.819Z,5.9
2017-02-24T03:48:00.316Z,5.9
2017-02-24T03:49:03.074Z,5.8
2017-02-24T03:50:05.571Z,5.9
2017-02-24T03:51:07.917Z,5.9
2017-02-24T03:52:11.143Z,5.8
2017-02-24T03:53:13.140Z,5.8
2017-02-24T03:54:16.440Z,5.8
2017-02-24T03:55:18.436Z,5.8
2017-02-24T03:56:20.930Z,5.9
2017-02-24T03:57:23.282Z,5.9
2017-02-24T03:58:26.837Z,5.9
2017-02-24T03:59:29.129Z,5.8
2017-02-24T04:00:31.627Z,5.8
2017-02-24T04:01:33.976Z,5.8
2017-02-24T04:02:36.474Z,5.8
2017-02-24T04:03:38.992Z,5.7
2017-02-24T04:04:42.258Z,5.8
2017-02-24T04:05:44.638Z,5.8
2017-02-24T04:06:47.140Z,5.8
2017-02-24T04:07:49.498Z,5.8
2017-02-24T04:08:51.859Z,5.8
2017-02-24T04:09:55.129Z,5.8
2017-02-24T04:10:57.682Z,5.8
2017-02-24T04:12:00.185Z,5.7
2017-02-24T04:13:02.679Z,5.8
2017-02-24T04:14:05.330Z,5.8
2017-02-24T04:15:07.747Z,5.8
2017-02-24T04:16:10.611Z,5.8
2017-02-24T04:17:13.116Z,5.8
2017-02-24T04:18:15.441Z,5.8
2017-02-24T04:19:17.939Z,5.8
2017-02-24T04:20:20.738Z,5.8
2017-02-24T04:21:23.799Z,5.8
2017-02-24T04:22:25.810Z,5.6
2017-02-24T04:23:28.326Z,5.6
2017-02-24T04:24:30.827Z,5.6
2017-02-24T04:25:34.145Z,5.6
2017-02-24T04:26:36.144Z,5.7
2017-02-24T04:27:38.638Z,5.7
2017-02-24T04:28:41.146Z,5.6
2017-02-24T04:29:44.165Z,5.6
2017-02-24T04:30:46.932Z,5.6
2017-02-24T04:31:48.955Z,5.6
2017-02-24T04:32:51.437Z,5.6
2017-02-24T04:33:54.462Z,5.6
2017-02-24T04:34:56.974Z,5.6
2017-02-24T04:35:59.733Z,5.6
2017-02-24T04:37:02.236Z,5.6
2017-02-24T04:38:04.734Z,5.6
2017-02-24T04:39:07.245Z,5.5
2017-02-24T04:40:09.575Z,5.5
2017-02-24T04:41:12.725Z,5.5
2017-02-24T04:42:14.729Z,5.5
2017-02-24T04:43:17.727Z,5.4
2017-02-24T04:44:20.235Z,5.4
2017-02-24T04:45:22.737Z,5.4
2017-02-24T04:46:25.506Z,5.3
2017-02-24T04:47:28.015Z,5.4
2017-02-24T04:48:30.516Z,5.4
2017-02-24T04:49:33.022Z,5.5
2017-02-24T04:50:35.522Z,5.5
2017-02-24T04:51:38.323Z,5.5
2017-02-24T04:52:40.818Z,5.5
2017-02-24T04:53:43.335Z,5.5
2017-02-24T04:54:45.832Z,5.5
2017-02-24T04:55:48.327Z,5.4
2017-02-24T04:56:51.079Z,5.4
2017-02-24T04:57:53.582Z,5.4
2017-02-24T04:58:56.090Z,5.3
2017-02-24T04:59:58.592Z,5.3
2017-02-24T05:01:01.987Z,5.4
2017-02-24T05:02:04.081Z,5.5
2017-02-24T05:03:06.603Z,5.4
2017-02-24T05:04:09.648Z,5.5
2017-02-24T05:05:11.641Z,5.4
2017-02-24T05:06:14.475Z,5.4
2017-02-24T05:07:17.232Z,5.3
2017-02-24T05:08:19.231Z,5.3
2017-02-24T05:09:22.236Z,5.3
2017-02-24T05:10:25.295Z,5.3
2017-02-24T05:11:27.297Z,5.3
2017-02-24T05:12:30.045Z,5.3
2017-02-24T05:13:32.040Z,5.3
2017-02-24T05:14:35.050Z,5.3
2017-02-24T05:15:37.557Z,5.3
2017-02-24T05:16:40.066Z,5.3
2017-02-24T05:17:42.826Z,5.4
2017-02-24T05:18:45.370Z,5.3
2017-02-24T05:19:47.869Z,5.3
2017-02-24T05:20:50.912Z,5.3
2017-02-24T05:26:03.302Z,5.3
2017-02-24T05:27:05.800Z,5.3
2017-02-24T05:28:07.981Z,5.3
2017-02-24T05:29:10.822Z,5.3
2017-02-24T05:30:13.159Z,5.3
2017-02-24T05:32:18.665Z,5.2
2017-02-24T05:33:21.166Z,5.3
2017-02-24T05:34:23.683Z,5.3
2017-02-24T05:35:26.191Z,5.3
2017-02-24T05:36:28.694Z,5.3
2017-02-24T05:37:31.954Z,5.3
2017-02-24T05:38:33.957Z,5.3
2017-02-24T05:39:36.478Z,5.2
2017-02-24T05:40:38.989Z,5.1
2017-02-24T05:41:41.991Z,5.2
2017-02-24T05:42:44.793Z,5.2
2017-02-24T05:43:46.800Z,5.2
2017-02-24T05:44:49.333Z,5.2
2017-02-24T05:45:51.694Z,5.1
2017-02-24T05:46:55.231Z,5.2
2017-02-24T05:47:57.531Z,5.2
2017-02-24T05:49:00.563Z,5.1
2017-02-24T05:50:02.570Z,5.1
2017-02-24T05:51:05.068Z,5.1
2017-02-24T05:52:07.249Z,5.2
2017-02-24T05:53:11.035Z,5.1
2017-02-24T05:54:12.354Z,5.1
2017-02-24T05:55:15.356Z,5.1
2017-02-24T05:56:17.866Z,5.2
2017-02-24T05:57:20.368Z,5.1
2017-02-24T05:58:23.196Z,5.1
2017-02-24T05:59:25.733Z,5.1
2017-02-24T06:00:28.233Z,5.1
2017-02-24T06:01:30.736Z,5.1
2017-02-24T06:02:33.228Z,5.1
2017-02-24T06:03:36.052Z,5.1
2017-02-24T06:04:38.567Z,5.1
2017-02-24T06:05:41.076Z,5.1
2017-02-24T06:06:43.580Z,5.1
2017-02-24T06:07:46.074Z,5
2017-02-24T06:08:48.656Z,5
2017-02-24T06:09:51.688Z,5
2017-02-24T06:10:53.690Z,5
2017-02-24T06:11:56.198Z,5
2017-02-24T06:12:58.709Z,5
2017-02-24T06:14:02.012Z,5
2017-02-24T06:15:03.838Z,5
2017-02-24T06:16:06.685Z,4.9
2017-02-24T06:17:09.189Z,5
2017-02-24T06:18:12.236Z,5
2017-02-24T06:19:14.321Z,5
2017-02-24T06:20:16.830Z,5
2017-02-24T06:21:19.326Z,5
2017-02-24T06:22:21.823Z,5
2017-02-24T06:23:24.831Z,5
2017-02-24T06:24:27.637Z,5
2017-02-24T06:25:29.636Z,5.1
2017-02-24T06:26:32.133Z,5
2017-02-24T06:27:35.156Z,5
2017-02-24T06:28:37.667Z,5
2017-02-24T06:29:40.479Z,5
2017-02-24T06:30:42.477Z,4.9
2017-02-24T06:31:45.517Z,4.9
2017-02-24T06:32:48.027Z,4.9
2017-02-24T06:33:50.525Z,4.8
2017-02-24T06:34:53.153Z,4.8
2017-02-24T06:35:55.664Z,4.9
2017-02-24T06:36:58.195Z,4.8
2017-02-24T06:38:00.694Z,4.9
2017-02-24T06:39:03.201Z,4.8
2017-02-24T06:40:06.002Z,4.8
2017-02-24T06:41:08.349Z,4.8
2017-02-24T06:42:10.846Z,4.8
2017-02-24T06:43:13.182Z,4.8
2017-02-24T06:44:16.193Z,4.9
2017-02-24T06:45:18.951Z,4.8
2017-02-24T06:46:20.960Z,5
2017-02-24T06:47:23.967Z,4.8
2017-02-24T06:48:26.464Z,4.8
2017-02-24T06:49:28.802Z,4.8
2017-02-24T06:50:32.113Z,4.8
2017-02-24T06:51:34.125Z,4.8
2017-02-24T06:52:36.632Z,4.8
2017-02-24T06:53:38.806Z,4.7
2017-02-24T06:54:41.818Z,4.7
2017-02-24T06:55:44.584Z,4.7
2017-02-24T06:56:47.087Z,4.8
2017-02-24T06:57:49.585Z,4.8
2017-02-24T06:58:52.696Z,4.8
2017-02-24T06:59:54.699Z,4.7
2017-02-24T07:00:57.520Z,4.8
2017-02-24T07:01:59.514Z,4.8
2017-02-24T07:03:02.534Z,4.8
2017-02-24T07:04:04.862Z,4.9
2017-02-24T07:05:07.360Z,4.8
2017-02-24T07:06:10.109Z,4.8
2017-02-24T07:07:12.603Z,4.8
2017-02-24T07:08:15.106Z,4.8
2017-02-24T07:09:17.612Z,4.8
2017-02-24T07:10:20.110Z,4.8
2017-02-24T07:11:23.027Z,4.8
2017-02-24T07:12:25.534Z,4.8
2017-02-24T07:13:28.053Z,4.8
2017-02-24T07:14:30.556Z,4.8
2017-02-24T07:15:33.075Z,4.8
2017-02-24T07:16:35.874Z,4.8
2017-02-24T07:17:38.373Z,4.8
2017-02-24T07:19:43.107Z,4.7
2017-02-24T07:20:46.108Z,4.6
2017-02-24T07:21:48.857Z,4.7
2017-02-24T07:22:51.040Z,4.6
2017-02-24T07:23:54.099Z,4.7
2017-02-24T07:24:56.098Z,4.7
2017-02-24T07:25:58.590Z,4.8
2017-02-24T07:27:01.898Z,4.7
2017-02-24T07:28:03.939Z,4.7
2017-02-24T07:29:06.486Z,4.7
2017-02-24T07:30:08.995Z,4.6
2017-02-24T07:31:11.507Z,4.6
2017-02-24T07:32:14.317Z,4.7
2017-02-24T07:33:16.822Z,4.6
2017-02-24T07:34:19.333Z,4.7
2017-02-24T07:35:21.832Z,4.7
2017-02-24T07:36:24.867Z,4.7
2017-02-24T07:37:27.119Z,4.7
2017-02-24T07:38:29.629Z,4.7
2017-02-24T07:39:32.202Z,4.8
2017-02-24T07:40:34.532Z,4.8
2017-02-24T07:41:37.221Z,4.8
2017-02-24T07:42:39.976Z,4.8
2017-02-24T07:43:43.019Z,4.8
2017-02-24T07:44:45.045Z,4.8
2017-02-24T07:45:48.081Z,4.8
2017-02-24T07:46:50.081Z,4.8
2017-02-24T07:47:52.851Z,4.8
2017-02-24T07:48:55.345Z,4.8
2017-02-24T07:49:57.853Z,4.8
2017-02-24T07:51:00.349Z,4.8
2017-02-24T07:52:02.701Z,4.7
2017-02-24T07:54:08.378Z,4.7
2017-02-24T07:55:10.872Z,4.7
2017-02-24T07:56:13.208Z,4.7
2017-02-24T07:57:15.709Z,4.7
2017-02-24T07:58:18.733Z,4.7
2017-02-24T07:59:21.476Z,4.8
2017-02-24T08:00:23.883Z,4.8
2017-02-24T08:01:26.395Z,4.8
2017-02-24T08:02:28.890Z,4.8
2017-02-24T08:03:31.412Z,4.8
2017-02-24T08:04:34.217Z,4.8
2017-02-24T08:05:36.731Z,4.8
2017-02-24T08:06:39.793Z,4.8
2017-02-24T08:07:41.788Z,4.7
2017-02-24T08:08:44.285Z,4.8
2017-02-24T08:09:47.045Z,4.7
2017-02-24T08:10:49.544Z,4.8
2017-02-24T08:11:51.879Z,4.8
2017-02-24T08:12:54.395Z,4.8
2017-02-24T08:13:56.899Z,4.7
2017-02-24T08:14:59.700Z,4.8
2017-02-24T08:16:02.197Z,4.8
2017-02-24T08:17:04.699Z,4.8
2017-02-24T08:18:07.054Z,4.8
2017-02-24T08:19:10.058Z,4.7
2017-02-24T08:20:12.810Z,4.7
2017-02-24T08:21:15.311Z,4.7
2017-02-24T08:22:17.812Z,4.7
2017-02-24T08:23:20.309Z,4.7
2017-02-24T08:24:22.631Z,4.8
2017-02-24T08:25:25.770Z,4.8
2017-02-24T08:26:27.775Z,4.8
2017-02-24T08:28:33.011Z,4.8
2017-02-24T08:29:35.853Z,4.8
2017-02-24T08:30:38.518Z,4.8
2017-02-24T08:31:41.019Z,4.8
2017-02-24T08:32:43.513Z,4.8
2017-02-24T08:33:46.029Z,4.8
2017-02-24T08:34:48.518Z,4.8
2017-02-24T08:35:51.266Z,4.8
2017-02-24T08:36:53.765Z,4.7
2017-02-24T08:37:56.283Z,4.7
2017-02-24T08:40:00.865Z,4.7
2017-02-24T08:41:04.181Z,4.7
2017-02-24T08:42:06.681Z,4.7
2017-02-24T08:43:09.190Z,4.6
2017-02-24T08:44:11.688Z,4.7
2017-02-24T08:45:14.188Z,4.7
2017-02-24T08:46:16.937Z,4.7
2017-02-24T08:47:19.432Z,4.7
2017-02-24T08:48:21.972Z,4.6
2017-02-24T08:49:24.495Z,4.6
2017-02-24T08:50:27.022Z,4.7
2017-02-24T08:51:30.164Z,4.7
2017-02-24T08:52:32.176Z,4.7
2017-02-24T08:53:34.685Z,4.7
2017-02-24T08:54:37.202Z,4.7
2017-02-24T08:55:40.212Z,4.8
2017-02-24T08:56:42.961Z,4.8
2017-02-24T08:57:44.977Z,4.8
2017-02-24T08:58:47.500Z,4.8
2017-02-24T08:59:50.502Z,4.8
2017-02-24T09:00:52.998Z,4.8
2017-02-24T09:01:56.117Z,4.8
2017-02-24T09:02:58.124Z,4.8
2017-02-24T09:04:01.030Z,4.8
2017-02-24T09:05:03.381Z,4.8
2017-02-24T09:07:08.418Z,4.8
2017-02-24T09:08:10.928Z,4.8
2017-02-24T09:09:13.277Z,4.8
2017-02-24T09:10:16.290Z,4.8
2017-02-24T09:11:19.178Z,4.7
2017-02-24T09:12:21.421Z,4.7
2017-02-24T09:13:23.920Z,4.7
2017-02-24T09:14:26.422Z,4.7
2017-02-24T09:15:28.925Z,4.8
2017-02-24T09:16:31.426Z,4.8
2017-02-24T09:17:34.252Z,4.8
2017-02-24T09:18:36.750Z,4.7
2017-02-24T09:19:39.251Z,4.8
2017-02-24T09:20:41.584Z,4.8
2017-02-24T09:22:47.283Z,4.8
2017-02-24T09:23:49.793Z,4.8
2017-02-24T09:24:52.286Z,4.8
2017-02-24T09:25:54.789Z,4.8
2017-02-24T09:26:57.285Z,4.8
2017-02-24T09:28:00.086Z,4.8
2017-02-24T09:29:02.427Z,4.8
2017-02-24T09:30:04.773Z,4.8
2017-02-24T09:31:07.775Z,4.8
2017-02-24T09:32:10.292Z,4.8
2017-02-24T09:33:13.046Z,4.8
2017-02-24T09:34:15.390Z,4.8
2017-02-24T09:35:18.423Z,4.8
2017-02-24T09:36:20.426Z,4.8
2017-02-24T09:37:22.749Z,4.8
2017-02-24T09:38:25.999Z,4.8
2017-02-24T09:39:27.826Z,4.8
2017-02-24T09:40:30.857Z,4.8
2017-02-24T09:41:33.185Z,4.8
2017-02-24T09:42:36.210Z,4.8
2017-02-24T09:43:39.008Z,4.8
2017-02-24T09:44:41.011Z,4.8
2017-02-24T09:45:43.545Z,4.8
2017-02-24T09:46:46.048Z,4.9
2017-02-24T09:47:48.894Z,4.8
2017-02-24T09:48:51.699Z,4.8
2017-02-24T09:49:54.191Z,4.9
2017-02-24T09:50:56.690Z,4.9
2017-02-24T09:51:59.023Z,4.9
2017-02-24T09:53:01.529Z,4.9
2017-02-24T09:54:04.838Z,4.9
2017-02-24T09:55:06.850Z,4.9
2017-02-24T09:56:09.355Z,4.9
2017-02-24T09:57:11.871Z,4.9
2017-02-24T09:58:14.879Z,4.9
2017-02-24T09:59:17.631Z,4.9
2017-02-24T10:00:19.662Z,4.9
2017-02-24T10:01:22.167Z,4.9
2017-02-24T10:02:25.175Z,4.9
2017-02-24T10:03:27.498Z,4.9
2017-02-24T10:04:30.322Z,4.9
2017-02-24T10:05:32.820Z,4.9
2017-02-24T10:06:35.329Z,4.9
2017-02-24T10:07:37.830Z,5
2017-02-24T10:08:40.338Z,5
2017-02-24T10:09:43.139Z,5
2017-02-24T10:10:45.469Z,5
2017-02-24T10:11:48.475Z,5
2017-02-24T10:12:50.977Z,5
2017-02-24T10:13:53.314Z,5
2017-02-24T10:14:56.122Z,5
2017-02-24T10:15:58.624Z,4.9
2017-02-24T10:17:01.130Z,4.9
2017-02-24T10:18:03.628Z,4.9
2017-02-24T10:19:06.131Z,4.9
2017-02-24T10:20:09.232Z,4.9
2017-02-24T10:21:11.559Z,4.9
2017-02-24T10:22:14.069Z,4.9
2017-02-24T10:23:17.130Z,4.9
2017-02-24T10:24:19.156Z,4.8
2017-02-24T10:25:21.921Z,4.8
2017-02-24T10:26:24.081Z,4.8
2017-02-24T10:27:27.091Z,4.8
2017-02-24T10:28:29.598Z,4.8
2017-02-24T10:30:34.776Z,4.8
2017-02-24T10:31:37.264Z,4.8
2017-02-24T10:32:39.766Z,4.8
2017-02-24T10:33:42.288Z,4.8
2017-02-24T10:34:45.299Z,4.8
2017-02-24T10:35:48.047Z,4.8
2017-02-24T10:36:50.046Z,4.8
2017-02-24T10:37:52.558Z,4.6
2017-02-24T10:38:55.562Z,4.6
2017-02-24T10:39:58.068Z,4.6
2017-02-24T10:41:00.912Z,4.6
2017-02-24T10:42:02.749Z,4.6
2017-02-24T10:43:05.760Z,4.7
2017-02-24T10:44:08.260Z,4.7
2017-02-24T10:45:10.782Z,4.8
2017-02-24T10:46:13.580Z,4.8
2017-02-24T10:47:16.085Z,4.8
2017-02-24T10:48:18.582Z,4.8
2017-02-24T10:49:21.204Z,4.8
2017-02-24T10:50:23.734Z,4.7
2017-02-24T10:51:26.487Z,4.7
2017-02-24T10:52:29.018Z,4.8
2017-02-24T10:53:31.348Z,4.8
2017-02-24T10:54:33.688Z,4.8
2017-02-24T10:55:36.689Z,4.8
2017-02-24T10:56:39.499Z,4.8
2017-02-24T10:57:42.019Z,4.8
2017-02-24T10:58:44.527Z,4.8
2017-02-24T10:59:47.028Z,4.8
2017-02-24T11:00:49.536Z,4.8
2017-02-24T11:01:52.117Z,4.8
2017-02-24T11:02:54.488Z,4.8
2017-02-24T11:03:57.501Z,4.8
2017-02-24T11:05:00.022Z,4.8
2017-02-24T11:06:02.532Z,4.9
2017-02-24T11:07:05.290Z,4.9
2017-02-24T11:08:07.629Z,4.9
2017-02-24T11:09:10.126Z,4.9
2017-02-24T11:10:12.624Z,4.9
2017-02-24T11:12:17.955Z,4.9
2017-02-24T11:13:20.285Z,4.8
2017-02-24T11:14:23.298Z,4.9
2017-02-24T11:15:25.814Z,4.9
2017-02-24T11:16:28.139Z,4.9
2017-02-24T11:17:30.935Z,4.8
2017-02-24T11:18:33.430Z,4.8
2017-02-24T11:19:35.950Z,4.8
2017-02-24T11:20:38.513Z,4.8
2017-02-24T11:21:41.017Z,4.8
2017-02-24T11:22:43.764Z,4.9
2017-02-24T11:23:46.260Z,4.9
2017-02-24T11:24:48.781Z,4.9
2017-02-24T11:25:51.284Z,4.9
2017-02-24T11:26:54.298Z,4.8
2017-02-24T11:27:57.060Z,4.8
2017-02-24T11:28:59.070Z,4.8
2017-02-24T11:30:01.583Z,4.7
2017-02-24T11:31:04.581Z,4.5
2017-02-24T11:32:06.905Z,4.5
2017-02-24T11:33:09.659Z,4.5
2017-02-24T11:34:11.993Z,4.5
2017-02-24T11:35:14.502Z,4.5
2017-02-24T11:36:17.541Z,4.4
2017-02-24T11:38:22.761Z,4.1
2017-02-24T11:39:24.768Z,4.1
2017-02-24T11:41:30.186Z,3.6
2017-02-24T11:42:32.698Z,4.1
2017-02-24T11:43:35.449Z,4.1
2017-02-24T11:44:37.950Z,4.3
2017-02-24T11:45:40.295Z,4.2
2017-02-24T11:46:42.621Z,4.2
2017-02-24T11:47:45.623Z,4.3
2017-02-24T11:48:48.372Z,4.3
2017-02-24T11:49:50.887Z,4.3
2017-02-24T11:50:53.405Z,4.4
2017-02-24T11:51:55.927Z,4.4
2017-02-24T11:52:58.422Z,4.5
2017-02-24T11:54:01.181Z,4.5
2017-02-24T11:55:03.348Z,4.5
2017-02-24T11:56:06.201Z,4.5
2017-02-24T11:57:08.532Z,4.5
2017-02-24T11:58:11.067Z,4.5
2017-02-24T11:59:13.867Z,4.5
2017-02-24T12:00:16.363Z,4.5
2017-02-24T12:01:18.868Z,4.5
2017-02-24T12:02:21.207Z,4.5
2017-02-24T12:03:24.227Z,4.6
2017-02-24T12:04:27.020Z,4.6
2017-02-24T12:05:28.856Z,4.6
2017-02-24T12:06:31.866Z,4.6
2017-02-24T12:07:34.365Z,4.6
2017-02-24T12:08:36.870Z,4.6
2017-02-24T12:10:42.576Z,4.6
2017-02-24T12:11:44.415Z,4.6
2017-02-24T12:12:47.995Z,4.6
2017-02-24T12:13:49.992Z,4.6
2017-02-24T12:14:52.345Z,4.6
2017-02-24T12:15:54.995Z,4.6
2017-02-24T12:16:57.320Z,4.6
2017-02-24T12:18:00.320Z,4.6
2017-02-24T12:19:02.819Z,4.6
2017-02-24T12:20:05.312Z,4.7
2017-02-24T12:21:08.128Z,4.7
2017-02-24T12:22:10.135Z,4.6
2017-02-24T12:23:13.159Z,4.6
2017-02-24T12:24:15.666Z,4.6
2017-02-24T12:25:18.168Z,4.6
2017-02-24T12:26:20.918Z,4.6
2017-02-24T12:27:23.431Z,4.6
2017-02-24T12:28:25.925Z,4.5
2017-02-24T12:29:28.253Z,4.5
2017-02-24T12:30:30.758Z,4.4
2017-02-24T12:31:34.014Z,4.4
2017-02-24T12:32:36.015Z,4.4
2017-02-24T12:33:38.509Z,4.4
2017-02-24T12:34:41.516Z,4.4
2017-02-24T12:36:46.717Z,4.3
2017-02-24T12:37:49.212Z,4.3
2017-02-24T12:38:51.731Z,4.3
2017-02-24T12:39:54.243Z,4.3
2017-02-24T12:40:56.738Z,4.3
2017-02-24T12:41:59.544Z,4.4
2017-02-24T12:43:02.060Z,4.3
2017-02-24T12:44:04.554Z,4.3
2017-02-24T12:45:07.053Z,4.4
2017-02-24T12:46:09.564Z,4.4
2017-02-24T12:47:12.167Z,4.4
2017-02-24T12:48:14.669Z,4.4
2017-02-24T12:49:17.000Z,4.3
2017-02-24T12:50:20.008Z,4.4
2017-02-24T12:51:22.529Z,4.4
2017-02-24T12:52:25.358Z,4.3
2017-02-24T12:53:27.361Z,4.4
2017-02-24T12:54:29.860Z,4.4
2017-02-24T12:55:32.867Z,4.3
2017-02-24T12:56:35.369Z,4.3
2017-02-24T12:57:38.665Z,4.3
2017-02-24T12:58:39.995Z,4.3
2017-02-24T12:59:42.905Z,4.3
2017-02-24T13:00:45.235Z,4.3
2017-02-24T13:01:48.256Z,4.2
2017-02-24T13:02:51.048Z,4.2
2017-02-24T13:03:52.930Z,4.2
2017-02-24T13:04:55.778Z,4.2
2017-02-24T13:05:58.299Z,4.3
2017-02-24T13:07:00.793Z,4.3
2017-02-24T13:08:04.148Z,4.3
2017-02-24T13:09:06.146Z,4.3
2017-02-24T13:10:08.645Z,4.3
2017-02-24T13:11:11.673Z,4.2
2017-02-24T13:12:13.515Z,4.2
2017-02-24T13:13:16.265Z,4.2
2017-02-24T13:14:18.769Z,4.2
2017-02-24T13:15:21.095Z,4.2
2017-02-24T13:16:24.111Z,4.2
2017-02-24T13:17:26.612Z,4.2
2017-02-24T13:18:29.423Z,4.3
2017-02-24T13:19:31.758Z,4.2
2017-02-24T13:20:34.255Z,4.1
2017-02-24T13:21:36.751Z,4.1
2017-02-24T13:22:39.794Z,4
2017-02-24T13:23:41.883Z,4.1
2017-02-24T13:24:44.393Z,4
2017-02-24T13:25:46.894Z,4
2017-02-24T13:26:49.430Z,3.9
2017-02-24T13:28:55.681Z,3.8
2017-02-24T13:30:59.586Z,3.6
2017-02-24T13:32:02.093Z,3.6
2017-02-24T13:33:05.105Z,3.8
2017-02-24T13:34:08.402Z,3.8
2017-02-24T13:35:09.904Z,3.8
2017-02-24T13:36:12.453Z,3.8
2017-02-24T13:37:15.010Z,3.7
2017-02-24T13:38:17.531Z,3.7
2017-02-24T13:39:20.372Z,3.7
2017-02-24T13:40:22.864Z,3.8
2017-02-24T13:41:25.375Z,3.8
2017-02-24T13:42:27.705Z,3.8
2017-02-24T13:43:30.209Z,3.8
2017-02-24T13:44:33.492Z,3.7
2017-02-24T13:45:35.490Z,3.7
2017-02-24T13:47:40.895Z,3.8
2017-02-24T13:48:43.397Z,3.8
2017-02-24T13:49:46.035Z,3.8
2017-02-24T13:50:48.544Z,3.8
2017-02-24T13:51:51.582Z,3.8
2017-02-24T13:52:53.570Z,3.8
2017-02-24T13:54:59.271Z,3.8
2017-02-24T13:56:01.289Z,3.8
2017-02-24T13:57:03.630Z,3.6
2017-02-24T13:58:06.142Z,3.5
2017-02-24T13:59:08.643Z,3.6
2017-02-24T14:00:11.424Z,3.6
2017-02-24T14:01:13.931Z,3.6
2017-02-24T14:02:16.258Z,3.6
2017-02-24T14:03:19.267Z,3.7
2017-02-24T14:04:21.765Z,3.7
2017-02-24T14:05:24.582Z,3.8
2017-02-24T14:06:26.588Z,3.8
2017-02-24T14:07:29.088Z,3.7
2017-02-24T14:08:31.595Z,3.6
2017-02-24T14:09:34.443Z,3.5
2017-02-24T14:10:37.192Z,3.4
2017-02-24T14:11:39.688Z,3.3
2017-02-24T14:12:42.197Z,3.4
2017-02-24T14:13:44.742Z,3.5
2017-02-24T14:14:47.066Z,3.4
2017-02-24T14:15:50.453Z,3.4
2017-02-24T14:16:52.274Z,3.4
2017-02-24T14:17:54.446Z,3.4
2017-02-24T14:18:57.459Z,3.4
2017-02-24T14:19:59.967Z,3.5
2017-02-24T14:21:03.140Z,3.5
2017-02-24T14:22:04.965Z,3.4
2017-02-24T14:23:07.303Z,3.3
2017-02-24T14:24:09.668Z,3.2
2017-02-24T14:25:12.675Z,3.3
2017-02-24T14:26:15.260Z,3.3
2017-02-24T14:28:20.170Z,3.2
2017-02-24T14:29:23.058Z,3.3
2017-02-24T14:30:25.396Z,3.3
2017-02-24T14:31:28.193Z,3.3
2017-02-24T14:32:30.194Z,3.4
2017-02-24T14:33:33.199Z,3.3
2017-02-24T14:34:35.703Z,3.3
2017-02-24T14:35:38.202Z,3.3
2017-02-24T14:36:40.787Z,3.4
2017-02-24T14:37:43.285Z,3.3
2017-02-24T14:38:45.780Z,3.5
2017-02-24T14:39:48.270Z,3.4
2017-02-24T14:40:50.788Z,3.4
2017-02-24T14:42:55.998Z,3.5
2017-02-24T14:43:58.519Z,3.5
2017-02-24T14:45:01.033Z,3.5
2017-02-24T14:46:03.360Z,3.5
2017-02-24T14:47:05.861Z,3.5
2017-02-24T14:48:08.509Z,3.4
2017-02-24T14:49:11.016Z,3.4
2017-02-24T14:50:13.526Z,3.3
2017-02-24T14:51:16.033Z,3.3
2017-02-24T14:52:18.531Z,3.3
2017-02-24T14:53:21.342Z,3.3
2017-02-24T14:54:24.398Z,3.3
2017-02-24T14:55:26.396Z,3.4
2017-02-24T14:56:28.632Z,3.4
2017-02-24T14:57:32.194Z,3.4